Startpagina
METAR-TAF:

METAR-TAF

Vliegvelden :

Vliegbasis Volkel

Uden, Nederland

breedte: 51-39N, lengte: 005-42E, hoogte: 22 m

Actueel weer

Dit bericht is 26 minuten geleden gemaakt, om 03:25 UTC
Wind 2 kt uit het noordoosten
Temperatuur 17°C
Vochtigheid 94%
Druk 1020 hPa
Zicht 10 km of meer
Verspreide wolken op 4400 ft
Geheel bewolkt op 7400 ft

METAR: EHVK 210325Z AUTO 04002KT 9999 SCT044 OVC074 17/16 Q1020 BLU

Tijdstip: 05:51 (03:51 UTC)

Verwachting

Dit bericht is 19 uur en het 10 minuten geleden gemaakt, om 08:41 UTC
Verwachting geldig van 20 om 09 UTC tot 20 om 21 UTC
Wind 6 kt uit het westzuidwesten
Zicht 10 km of meer
Verspreide wolken op 1500 ft
Gebroken wolken op 4000 ft
Wijzigt naar
van 20 om 09 UTC tot 20 om 12 UTC
Verspreide wolken op 2200 ft
Gebroken wolken op 4000 ft
Wijzigt naar
van 20 om 18 UTC tot 20 om 21 UTC
Wind 3 kt uit variabele richting

TAF: EHVK 200841Z 2009/2021 25006KT 9999 SCT015 BKN040 BECMG 2009/2012 SCT022 BKN040 BECMG 2018/2021 VRB03KT

Waarnemingen en weersverwachtingen van meer dan 4000 vliegvelden (METAR en TAF).

De beschikbare stations zijn de gele en rode punten op de kaart.

Ga met uw muis naar het station om de naam te zien.

Klik dan om waarnemingen en weersverwachtingen te zien.

kaart wijzigen: klik op de groene knoppen met een zwart kruis om in te zoomen, op de groene knop met een streepje om uit te zoomen of op de groene pijlen voor aangrenzende kaarten.


METAR-TAF: